createdAt,value
2018-01-12T00:00:59.406Z,3.51
2018-01-12T00:01:58.112Z,3.45
2018-01-12T00:02:58.420Z,3.51
2018-01-12T00:03:57.886Z,3.51
2018-01-12T00:04:58.160Z,3.49
2018-01-12T00:05:58.475Z,3.51
2018-01-12T00:06:58.182Z,3.45
2018-01-12T00:07:58.483Z,3.53
2018-01-12T00:08:59.273Z,3.53
2018-01-12T00:09:57.993Z,3.54
2018-01-12T00:10:59.084Z,3.51
2018-01-12T00:11:58.600Z,3.58
2018-01-12T00:12:58.607Z,3.53
2018-01-12T00:13:58.613Z,3.51
2018-01-12T00:14:58.557Z,3.56
2018-01-12T00:15:58.739Z,3.54
2018-01-12T00:16:58.786Z,3.49
2018-01-12T00:17:58.554Z,3.56
2018-01-12T00:19:00.232Z,3.49
2018-01-12T00:19:58.883Z,3.46
2018-01-12T00:20:59.649Z,3.56
2018-01-12T00:21:59.277Z,3.51
2018-01-12T00:22:59.604Z,3.56
2018-01-12T00:23:59.686Z,3.48
2018-01-12T00:24:58.943Z,3.53
2018-01-12T00:25:59.336Z,3.51
2018-01-12T00:27:00.190Z,3.58
2018-01-12T00:27:59.989Z,3.49
2018-01-12T00:29:00.525Z,3.54
2018-01-12T00:30:00.617Z,3.51
2018-01-12T00:31:00.840Z,3.6
2018-01-12T00:32:00.415Z,3.49
2018-01-12T00:33:00.397Z,3.49
2018-01-12T00:34:00.186Z,3.49
2018-01-12T00:35:00.693Z,3.6
2018-01-12T00:36:00.930Z,3.56
2018-01-12T00:37:00.384Z,3.63
2018-01-12T00:38:02.028Z,3.67
2018-01-12T00:39:01.067Z,3.69
2018-01-12T00:40:01.404Z,3.58
2018-01-12T00:41:01.866Z,3.61
2018-01-12T00:42:01.958Z,3.6
2018-01-12T00:43:03.021Z,3.63
2018-01-12T00:44:02.588Z,3.54
2018-01-12T00:45:02.973Z,3.6
2018-01-12T00:46:01.708Z,3.53
2018-01-12T00:47:03.289Z,3.56
2018-01-12T00:48:03.229Z,3.56
2018-01-12T00:49:01.852Z,3.51
2018-01-12T00:50:01.621Z,3.54
2018-01-12T00:51:02.323Z,3.53
2018-01-12T00:52:02.367Z,3.56
2018-01-12T00:53:02.379Z,3.49
2018-01-12T00:54:02.239Z,3.48
2018-01-12T00:55:02.627Z,3.56
2018-01-12T00:56:02.706Z,3.45
2018-01-12T00:57:03.190Z,3.53
2018-01-12T00:58:02.851Z,3.54
2018-01-12T00:59:03.148Z,3.46
2018-01-12T01:01:03.579Z,3.54
2018-01-12T01:02:04.011Z,3.54
2018-01-12T01:03:03.131Z,3.48
2018-01-12T01:04:02.572Z,3.49
2018-01-12T01:05:02.718Z,3.49
2018-01-12T01:06:02.329Z,3.51
2018-01-12T01:07:03.781Z,3.49
2018-01-12T01:08:02.436Z,3.49
2018-01-12T01:09:03.030Z,3.51
2018-01-12T01:10:02.512Z,3.46
2018-01-12T01:11:02.619Z,3.48
2018-01-12T01:12:03.023Z,3.51
2018-01-12T01:13:02.309Z,3.46
2018-01-12T01:14:02.557Z,3.51
2018-01-12T01:15:03.363Z,3.51
2018-01-12T01:16:03.209Z,3.51
2018-01-12T01:17:03.175Z,3.48
2018-01-12T01:18:02.882Z,3.48
2018-01-12T01:19:03.327Z,3.45
2018-01-12T01:20:03.586Z,3.53
2018-01-12T01:21:04.322Z,3.49
2018-01-12T01:22:04.885Z,3.49
2018-01-12T01:23:04.500Z,3.53
2018-01-12T01:24:04.009Z,3.53
2018-01-12T01:25:04.440Z,3.54
2018-01-12T01:26:03.935Z,3.53
2018-01-12T01:27:04.031Z,3.46
2018-01-12T01:28:04.391Z,3.48
2018-01-12T01:29:04.448Z,3.43
2018-01-12T01:30:05.574Z,3.49
2018-01-12T01:31:04.978Z,3.45
2018-01-12T01:32:05.327Z,3.45
2018-01-12T01:33:04.450Z,3.51
2018-01-12T01:34:04.171Z,3.49
2018-01-12T01:35:05.152Z,3.51
2018-01-12T01:36:04.748Z,3.46
2018-01-12T01:37:04.986Z,3.46
2018-01-12T01:38:05.176Z,3.56
2018-01-12T01:39:05.678Z,3.54
2018-01-12T01:40:05.758Z,3.49
2018-01-12T01:41:05.442Z,3.48
2018-01-12T01:42:05.976Z,3.53
2018-01-12T01:43:06.257Z,3.56
2018-01-12T01:44:06.872Z,3.46
2018-01-12T01:45:06.493Z,3.46
2018-01-12T01:46:06.199Z,3.46
2018-01-12T01:47:06.759Z,3.49
2018-01-12T01:48:06.463Z,3.54
2018-01-12T01:49:06.965Z,3.54
2018-01-12T01:50:06.825Z,3.46
2018-01-12T01:51:07.431Z,3.54
2018-01-12T01:52:07.536Z,3.49
2018-01-12T01:53:07.500Z,3.48
2018-01-12T01:54:07.476Z,3.53
2018-01-12T01:55:08.101Z,3.51
2018-01-12T01:56:08.446Z,3.51
2018-01-12T01:57:08.968Z,3.51
2018-01-12T01:58:09.207Z,3.58
2018-01-12T01:59:08.851Z,3.53
2018-01-12T02:00:24.250Z,3.56
2018-01-12T02:01:24.190Z,3.57
2018-01-12T02:02:24.218Z,3.49
2018-01-12T02:03:24.369Z,3.49
2018-01-12T02:04:24.286Z,3.49
2018-01-12T02:05:24.216Z,3.48
2018-01-12T02:06:24.313Z,3.46
2018-01-12T02:07:25.019Z,3.45
2018-01-12T02:08:25.757Z,3.48
2018-01-12T02:09:25.987Z,3.49
2018-01-12T02:10:26.383Z,3.4
2018-01-12T02:11:26.091Z,3.49
2018-01-12T02:12:24.970Z,3.4
2018-01-12T02:13:26.868Z,3.45
2018-01-12T02:14:26.852Z,3.4
2018-01-12T02:15:26.314Z,3.46
2018-01-12T02:16:26.950Z,3.37
2018-01-12T02:17:27.242Z,3.35
2018-01-12T02:18:26.971Z,3.42
2018-01-12T02:19:27.038Z,3.42
2018-01-12T02:20:27.266Z,3.37
2018-01-12T02:21:26.990Z,3.4
2018-01-12T02:22:27.492Z,3.42
2018-01-12T02:23:27.143Z,3.35
2018-01-12T02:24:25.970Z,3.35
2018-01-12T02:25:26.455Z,3.32
2018-01-12T02:26:25.961Z,3.34
2018-01-12T02:27:26.573Z,3.37
2018-01-12T02:28:26.243Z,3.34
2018-01-12T02:29:26.566Z,3.4
2018-01-12T02:30:56.025Z,3.37
2018-01-12T02:31:41.190Z,3.37
2018-01-12T02:32:41.850Z,3.35
2018-01-12T02:33:42.019Z,3.4
2018-01-12T02:34:42.322Z,3.4
2018-01-12T02:35:42.707Z,3.34
2018-01-12T02:36:42.851Z,3.39
2018-01-12T02:37:42.585Z,3.42
2018-01-12T02:38:42.462Z,3.4
2018-01-12T02:39:42.731Z,3.39
2018-01-12T02:40:43.171Z,3.37
2018-01-12T02:41:43.319Z,3.39
2018-01-12T02:42:43.526Z,3.34
2018-01-12T02:43:43.655Z,3.4
2018-01-12T02:44:43.956Z,3.4
2018-01-12T02:45:43.880Z,3.37
2018-01-12T02:46:44.564Z,3.4
2018-01-12T02:47:44.545Z,3.27
2018-01-12T02:48:44.689Z,3.34
2018-01-12T02:49:44.365Z,3.32
2018-01-12T02:50:44.756Z,3.3
2018-01-12T02:51:44.574Z,3.34
2018-01-12T02:52:44.968Z,3.37
2018-01-12T02:53:45.028Z,3.27
2018-01-12T02:54:45.391Z,3.34
2018-01-12T02:55:45.821Z,3.32
2018-01-12T02:56:45.517Z,3.37
2018-01-12T02:57:45.870Z,3.34
2018-01-12T02:58:45.369Z,3.34
2018-01-12T02:59:45.755Z,3.35
2018-01-12T03:00:45.914Z,3.2
2018-01-12T03:01:45.700Z,3.21
2018-01-12T03:02:46.283Z,3.32
2018-01-12T03:03:46.319Z,3.21
2018-01-12T03:04:46.284Z,3.23
2018-01-12T03:05:46.349Z,3.3
2018-01-12T03:06:46.087Z,3.34
2018-01-12T03:07:46.339Z,3.2
2018-01-12T03:08:46.566Z,3.23
2018-01-12T03:09:46.121Z,3.35
2018-01-12T03:10:46.723Z,3.24
2018-01-12T03:11:46.825Z,3.29
2018-01-12T03:12:46.492Z,3.27
2018-01-12T03:13:46.758Z,3.26
2018-01-12T03:14:46.816Z,3.24
2018-01-12T03:15:46.626Z,3.27
2018-01-12T03:16:46.896Z,3.19
2018-01-12T03:17:46.584Z,3.27
2018-01-12T03:18:46.903Z,3.3
2018-01-12T03:19:46.963Z,3.27
2018-01-12T03:20:46.689Z,3.26
2018-01-12T03:21:46.983Z,3.29
2018-01-12T03:22:46.715Z,3.32
2018-01-12T03:23:47.233Z,3.29
2018-01-12T03:24:47.488Z,3.29
2018-01-12T03:25:47.550Z,3.26
2018-01-12T03:26:47.503Z,3.3
2018-01-12T03:27:47.610Z,3.24
2018-01-12T03:28:47.406Z,3.21
2018-01-12T03:29:47.640Z,3.24
2018-01-12T03:30:47.672Z,3.27
2018-01-12T03:31:47.659Z,3.26
2018-01-12T03:32:47.880Z,3.27
2018-01-12T03:33:47.663Z,3.21
2018-01-12T03:34:47.979Z,3.17
2018-01-12T03:35:48.320Z,3.3
2018-01-12T03:36:48.289Z,3.19
2018-01-12T03:37:48.025Z,3.26
2018-01-12T03:38:48.331Z,3.27
2018-01-12T03:39:48.385Z,3.26
2018-01-12T03:40:48.108Z,3.19
2018-01-12T03:41:49.243Z,3.27
2018-01-12T03:42:48.732Z,3.3
2018-01-12T03:43:49.137Z,3.27
2018-01-12T03:44:48.934Z,3.24
2018-01-12T03:45:48.827Z,3.3
2018-01-12T03:46:48.831Z,3.26
2018-01-12T03:47:50.422Z,3.26
2018-01-12T03:48:49.735Z,3.26
2018-01-12T03:49:50.461Z,3.3
2018-01-12T03:50:50.899Z,3.24
2018-01-12T03:51:49.559Z,3.13
2018-01-12T03:52:50.138Z,3.27
2018-01-12T03:53:50.068Z,3.24
2018-01-12T03:54:49.841Z,3.3
2018-01-12T03:55:49.640Z,3.3
2018-01-12T03:56:50.295Z,3.19
2018-01-12T03:57:50.658Z,3.19
2018-01-12T03:58:50.399Z,3.23
2018-01-12T03:59:50.496Z,3.26
2018-01-12T04:01:50.443Z,3.29
2018-01-12T04:02:50.765Z,3.21
2018-01-12T04:03:51.581Z,3.26
2018-01-12T04:04:51.214Z,3.16
2018-01-12T04:05:51.159Z,3.26
2018-01-12T04:06:51.479Z,3.27
2018-01-12T04:07:51.189Z,3.23
2018-01-12T04:08:51.769Z,3.16
2018-01-12T04:09:51.519Z,3.27
2018-01-12T04:10:52.065Z,3.24
2018-01-12T04:11:52.981Z,3.27
2018-01-12T04:12:52.073Z,3.19
2018-01-12T04:13:51.545Z,3.17
2018-01-12T04:14:51.866Z,3.19
2018-01-12T04:15:52.370Z,3.19
2018-01-12T04:16:52.326Z,3.2
2018-01-12T04:17:52.353Z,3.19
2018-01-12T04:18:53.760Z,3.11
2018-01-12T04:19:52.157Z,3.16
2018-01-12T04:20:52.454Z,3.16
2018-01-12T04:21:52.418Z,3.06
2018-01-12T04:22:52.480Z,3.08
2018-01-12T04:23:52.181Z,3.06
2018-01-12T04:24:52.342Z,3.17
2018-01-12T04:25:52.531Z,3.08
2018-01-12T04:26:52.640Z,3.06
2018-01-12T04:27:52.698Z,3.11
2018-01-12T04:28:52.420Z,3.06
2018-01-12T04:29:52.600Z,3.13
2018-01-12T04:30:52.383Z,3.06
2018-01-12T04:31:52.945Z,3.06
2018-01-12T04:32:52.941Z,3.09
2018-01-12T04:33:53.185Z,3.08
2018-01-12T04:34:52.972Z,3.11
2018-01-12T04:35:52.958Z,3.11
2018-01-12T04:36:53.274Z,2.98
2018-01-12T04:37:53.436Z,3.03
2018-01-12T04:38:53.281Z,2.99
2018-01-12T04:39:53.367Z,3.06
2018-01-12T04:40:53.245Z,3.17
2018-01-12T04:41:53.253Z,3.06
2018-01-12T04:42:53.142Z,2.96
2018-01-12T04:43:53.689Z,3.11
2018-01-12T04:44:53.479Z,2.95
2018-01-12T04:45:53.561Z,3.06
2018-01-12T04:46:53.579Z,2.96
2018-01-12T04:47:53.287Z,3.01
2018-01-12T04:48:54.302Z,2.98
2018-01-12T04:49:54.352Z,3.05
2018-01-12T04:50:54.018Z,2.96
2018-01-12T04:51:53.623Z,2.95
2018-01-12T04:52:54.334Z,2.98
2018-01-12T04:53:53.755Z,3.01
2018-01-12T04:54:54.773Z,2.88
2018-01-12T04:55:53.924Z,2.85
2018-01-12T04:56:54.920Z,2.83
2018-01-12T04:57:55.237Z,2.8
2018-01-12T04:58:55.112Z,2.83
2018-01-12T04:59:54.269Z,2.81
2018-01-12T05:00:53.278Z,2.84
2018-01-12T05:01:53.707Z,2.77
2018-01-12T05:02:53.910Z,2.81
2018-01-12T05:03:53.718Z,2.78
2018-01-12T05:04:54.195Z,2.77
2018-01-12T05:05:53.791Z,2.84
2018-01-12T05:06:54.496Z,2.81
2018-01-12T05:07:54.395Z,2.81
2018-01-12T05:08:54.603Z,2.73
2018-01-12T05:09:54.525Z,2.78
2018-01-12T05:10:55.455Z,2.81
2018-01-12T05:11:54.083Z,2.77
2018-01-12T05:12:54.012Z,2.81
2018-01-12T05:13:54.504Z,2.81
2018-01-12T05:14:54.756Z,2.81
2018-01-12T05:15:53.992Z,2.8
2018-01-12T05:16:54.052Z,2.77
2018-01-12T05:17:54.166Z,2.76
2018-01-12T05:18:54.485Z,2.8
2018-01-12T05:19:54.471Z,2.78
2018-01-12T05:20:55.151Z,2.73
2018-01-12T05:22:55.182Z,2.7
2018-01-12T05:23:55.196Z,2.73
2018-01-12T05:24:55.341Z,2.72
2018-01-12T05:25:55.381Z,2.69
2018-01-12T05:26:54.569Z,2.7
2018-01-12T05:27:54.353Z,2.7
2018-01-12T05:28:54.470Z,2.69
2018-01-12T05:29:54.395Z,2.69
2018-01-12T05:30:54.806Z,2.69
2018-01-12T05:31:55.313Z,2.67
2018-01-12T05:32:55.674Z,2.7
2018-01-12T05:33:55.767Z,2.63
2018-01-12T05:34:55.781Z,2.69
2018-01-12T05:35:55.808Z,2.72
2018-01-12T05:36:55.851Z,2.69
2018-01-12T05:37:55.440Z,2.72
2018-01-12T05:38:55.970Z,2.6
2018-01-12T05:39:55.850Z,2.66
2018-01-12T05:40:55.771Z,2.69
2018-01-12T05:41:56.667Z,2.67
2018-01-12T05:42:56.962Z,2.76
2018-01-12T05:43:56.800Z,2.65
2018-01-12T05:44:56.581Z,2.77
2018-01-12T05:45:57.035Z,2.67
2018-01-12T05:46:56.462Z,2.7
2018-01-12T05:47:57.047Z,2.72
2018-01-12T05:48:56.787Z,2.65
2018-01-12T05:49:56.880Z,2.69
2018-01-12T05:50:56.959Z,2.69
2018-01-12T05:51:57.267Z,2.7
2018-01-12T05:52:57.261Z,2.76
2018-01-12T05:53:57.402Z,2.73
2018-01-12T05:54:58.087Z,2.7
2018-01-12T05:55:57.611Z,2.73
2018-01-12T05:56:57.631Z,2.72
2018-01-12T05:57:57.633Z,2.72
2018-01-12T05:58:58.079Z,2.73
2018-01-12T05:59:57.847Z,2.67
2018-01-12T06:01:58.412Z,2.72
2018-01-12T06:02:58.172Z,2.69
2018-01-12T06:03:58.523Z,2.69
2018-01-12T06:04:58.268Z,2.67
2018-01-12T06:05:58.542Z,2.7
2018-01-12T06:06:58.566Z,2.73
2018-01-12T06:07:58.317Z,2.73
2018-01-12T06:08:58.337Z,2.58
2018-01-12T06:09:58.620Z,2.69
2018-01-12T06:10:58.706Z,2.67
2018-01-12T06:11:58.185Z,2.67
2018-01-12T06:12:58.143Z,2.67
2018-01-12T06:13:59.130Z,2.65
2018-01-12T06:14:59.598Z,2.67
2018-01-12T06:15:58.921Z,2.7
2018-01-12T06:16:59.228Z,2.69
2018-01-12T06:17:59.016Z,2.73
2018-01-12T06:18:59.384Z,2.67
2018-01-12T06:19:59.283Z,2.72
2018-01-12T06:20:58.995Z,2.65
2018-01-12T06:21:58.962Z,2.69
2018-01-12T06:22:59.465Z,2.7
2018-01-12T06:23:59.752Z,2.69
2018-01-12T06:24:59.424Z,2.72
2018-01-12T06:25:59.770Z,2.72
2018-01-12T06:26:59.896Z,2.76
2018-01-12T06:28:01.082Z,2.77
2018-01-12T06:29:00.771Z,2.76
2018-01-12T06:30:00.842Z,2.77
2018-01-12T06:31:00.760Z,2.7
2018-01-12T06:32:00.640Z,2.76
2018-01-12T06:33:03.067Z,2.8
2018-01-12T06:34:02.565Z,2.78
2018-01-12T06:35:01.564Z,2.76
2018-01-12T06:36:01.787Z,2.7
2018-01-12T06:37:02.318Z,2.76
2018-01-12T06:38:02.370Z,2.69
2018-01-12T06:39:03.064Z,2.72
2018-01-12T06:40:03.191Z,2.77
2018-01-12T06:41:03.254Z,2.72
2018-01-12T06:42:03.890Z,2.7
2018-01-12T06:43:03.753Z,2.69
2018-01-12T06:44:02.856Z,2.66
2018-01-12T06:45:03.499Z,2.67
2018-01-12T06:46:03.302Z,2.76
2018-01-12T06:47:03.311Z,2.77
2018-01-12T06:48:04.176Z,2.76
2018-01-12T06:49:03.718Z,2.58
2018-01-12T06:50:03.735Z,2.66
2018-01-12T06:51:03.454Z,2.7
2018-01-12T06:52:03.531Z,2.77
2018-01-12T06:53:04.189Z,2.65
2018-01-12T06:54:03.826Z,2.73
2018-01-12T06:55:03.735Z,2.76
2018-01-12T06:56:04.151Z,2.67
2018-01-12T06:57:04.172Z,2.69
2018-01-12T06:58:04.641Z,2.7
2018-01-12T06:59:04.375Z,2.69
2018-01-12T07:00:19.817Z,2.69
2018-01-12T07:01:05.044Z,2.73
2018-01-12T07:02:05.812Z,2.69
2018-01-12T07:03:05.557Z,2.72
2018-01-12T07:04:06.385Z,2.7
2018-01-12T07:05:06.166Z,2.72
2018-01-12T07:06:07.094Z,2.7
2018-01-12T07:07:05.575Z,2.7
2018-01-12T07:08:06.029Z,2.7
2018-01-12T07:09:06.393Z,2.67
2018-01-12T07:10:05.849Z,2.7
2018-01-12T07:11:06.435Z,2.76
2018-01-12T07:12:06.128Z,2.7
2018-01-12T07:13:06.456Z,2.72
2018-01-12T07:14:06.807Z,2.62
2018-01-12T07:15:06.630Z,2.59
2018-01-12T07:16:06.964Z,2.69
2018-01-12T07:17:06.807Z,2.67
2018-01-12T07:18:07.345Z,2.63
2018-01-12T07:19:07.590Z,2.62
2018-01-12T07:20:07.540Z,2.63
2018-01-12T07:21:07.925Z,2.67
2018-01-12T07:22:08.103Z,2.66
2018-01-12T07:23:07.920Z,2.65
2018-01-12T07:24:07.473Z,2.62
2018-01-12T07:25:07.409Z,2.58
2018-01-12T07:26:07.313Z,2.62
2018-01-12T07:27:07.505Z,2.59
2018-01-12T07:28:07.733Z,2.63
2018-01-12T07:29:07.959Z,2.65
2018-01-12T07:30:07.706Z,2.58
2018-01-12T07:31:07.652Z,2.54
2018-01-12T07:32:08.490Z,2.62
2018-01-12T07:33:08.086Z,2.6
2018-01-12T07:34:08.752Z,2.54
2018-01-12T07:35:08.814Z,2.59
2018-01-12T07:36:08.733Z,2.55
2018-01-12T07:37:09.058Z,2.52
2018-01-12T07:38:10.367Z,2.62
2018-01-12T07:39:09.188Z,2.58
2018-01-12T07:40:09.903Z,2.55
2018-01-12T07:41:09.600Z,2.58
2018-01-12T07:42:09.798Z,2.63
2018-01-12T07:43:09.876Z,2.55
2018-01-12T07:44:09.933Z,2.54
2018-01-12T07:45:09.707Z,2.49
2018-01-12T07:46:11.137Z,2.49
2018-01-12T07:47:09.692Z,2.55
2018-01-12T07:48:09.449Z,2.6
2018-01-12T07:49:10.014Z,2.62
2018-01-12T07:50:10.037Z,2.58
2018-01-12T07:51:09.838Z,2.62
2018-01-12T07:52:10.755Z,2.54
2018-01-12T07:53:10.581Z,2.54
2018-01-12T07:54:10.360Z,2.55
2018-01-12T07:55:10.743Z,2.63
2018-01-12T07:56:11.073Z,2.66
2018-01-12T07:57:11.151Z,2.55
2018-01-12T07:58:11.125Z,2.55
2018-01-12T07:59:11.133Z,2.62
2018-01-12T08:00:25.563Z,2.54
2018-01-12T08:01:12.229Z,2.6
2018-01-12T08:02:12.172Z,2.48
2018-01-12T08:03:10.956Z,2.49
2018-01-12T08:04:11.268Z,2.55
2018-01-12T08:05:11.114Z,2.49
2018-01-12T08:06:12.031Z,2.45
2018-01-12T08:07:11.780Z,2.48
2018-01-12T08:08:11.299Z,2.42
2018-01-12T08:09:11.589Z,2.49
2018-01-12T08:10:11.947Z,2.45
2018-01-12T08:11:12.019Z,2.45
2018-01-12T08:12:12.342Z,2.45
2018-01-12T08:13:12.252Z,2.45
2018-01-12T08:14:12.517Z,2.47
2018-01-12T08:15:12.630Z,2.48
2018-01-12T08:16:12.467Z,2.44
2018-01-12T08:17:13.840Z,2.42
2018-01-12T08:18:13.181Z,2.42
2018-01-12T08:19:13.979Z,2.4
2018-01-12T08:20:13.408Z,2.44
2018-01-12T08:21:13.484Z,2.36
2018-01-12T08:22:13.646Z,2.4
2018-01-12T08:23:14.482Z,2.47
2018-01-12T08:24:13.940Z,2.45
2018-01-12T08:25:14.134Z,2.44
2018-01-12T08:26:13.941Z,2.45
2018-01-12T08:27:14.589Z,2.4
2018-01-12T08:28:14.214Z,2.49
2018-01-12T08:29:14.476Z,2.51
2018-01-12T08:30:14.709Z,2.45
2018-01-12T08:31:14.711Z,2.58
2018-01-12T08:32:14.435Z,2.62
2018-01-12T08:33:14.896Z,2.52
2018-01-12T08:34:15.006Z,2.54
2018-01-12T08:35:14.789Z,2.6
2018-01-12T08:36:14.890Z,2.58
2018-01-12T08:37:15.748Z,2.55
2018-01-12T08:38:16.039Z,2.58
2018-01-12T08:39:14.930Z,2.52
2018-01-12T08:40:17.160Z,2.55
2018-01-12T08:41:15.609Z,2.59
2018-01-12T08:42:15.535Z,2.55
2018-01-12T08:43:16.725Z,2.6
2018-01-12T08:44:15.597Z,2.58
2018-01-12T08:45:15.616Z,2.6
2018-01-12T08:46:15.674Z,2.55
2018-01-12T08:47:16.214Z,2.55
2018-01-12T08:48:15.973Z,2.52
2018-01-12T08:49:16.459Z,2.44
2018-01-12T08:50:16.449Z,2.47
2018-01-12T08:51:17.109Z,2.45
2018-01-12T08:52:17.038Z,2.44
2018-01-12T08:53:17.332Z,2.44
2018-01-12T08:54:16.972Z,2.42
2018-01-12T08:55:17.617Z,2.44
2018-01-12T08:56:17.492Z,2.44
2018-01-12T08:57:17.457Z,2.47
2018-01-12T08:58:17.400Z,2.47
2018-01-12T08:59:17.836Z,2.45
2018-01-12T09:00:37.651Z,2.48
2018-01-12T09:01:22.738Z,2.45
2018-01-12T09:02:22.814Z,2.41
2018-01-12T09:03:23.569Z,2.44
2018-01-12T09:04:23.483Z,2.44
2018-01-12T09:05:23.606Z,2.48
2018-01-12T09:06:23.455Z,2.41
2018-01-12T09:07:24.007Z,2.45
2018-01-12T09:08:24.250Z,2.41
2018-01-12T09:09:24.032Z,2.41
2018-01-12T09:10:24.611Z,2.4
2018-01-12T09:11:23.836Z,2.42
2018-01-12T09:12:23.758Z,2.38
2018-01-12T09:13:24.114Z,2.38
2018-01-12T09:14:24.334Z,2.44
2018-01-12T09:15:24.218Z,2.44
2018-01-12T09:16:24.353Z,2.45
2018-01-12T09:17:24.013Z,2.45
2018-01-12T09:18:25.456Z,2.4
2018-01-12T09:19:25.454Z,2.44
2018-01-12T09:20:24.478Z,2.42
2018-01-12T09:21:24.183Z,2.44
2018-01-12T09:22:25.790Z,2.47
2018-01-12T09:23:24.949Z,2.45
2018-01-12T09:24:24.839Z,2.4
2018-01-12T09:25:24.169Z,2.48
2018-01-12T09:26:24.225Z,2.47
2018-01-12T09:27:24.543Z,2.49
2018-01-12T09:28:25.744Z,2.41
2018-01-12T09:29:25.632Z,2.54
2018-01-12T09:30:26.395Z,2.47
2018-01-12T09:31:24.822Z,2.48
2018-01-12T09:32:24.566Z,2.49
2018-01-12T09:33:24.780Z,2.47
2018-01-12T09:34:24.676Z,2.44
2018-01-12T09:35:24.648Z,2.47
2018-01-12T09:36:24.410Z,2.49
2018-01-12T09:37:25.358Z,2.45
2018-01-12T09:38:26.132Z,2.47
2018-01-12T09:39:25.110Z,2.42
2018-01-12T09:40:25.417Z,2.47
2018-01-12T09:41:25.384Z,2.48
2018-01-12T09:42:25.972Z,2.48
2018-01-12T09:43:25.872Z,2.42
2018-01-12T09:44:26.132Z,2.48
2018-01-12T09:45:26.241Z,2.47
2018-01-12T09:46:26.225Z,2.48
2018-01-12T09:47:26.015Z,2.54
2018-01-12T09:48:26.006Z,2.47
2018-01-12T09:49:25.950Z,2.47
2018-01-12T09:50:26.139Z,2.45
2018-01-12T09:51:25.937Z,2.45
2018-01-12T09:52:26.099Z,2.45
2018-01-12T09:53:25.875Z,2.44
2018-01-12T09:54:31.420Z,2.47
2018-01-12T09:55:31.448Z,2.45
2018-01-12T09:56:36.895Z,2.48
2018-01-12T09:57:37.197Z,2.47
2018-01-12T09:58:36.859Z,2.48
2018-01-12T09:59:37.003Z,2.49
2018-01-12T10:00:36.873Z,2.52
2018-01-12T10:01:37.334Z,2.52
2018-01-12T10:02:37.343Z,2.58
2018-01-12T10:03:37.862Z,2.6
2018-01-12T10:04:37.936Z,2.58
2018-01-12T10:05:37.909Z,2.52
2018-01-12T10:06:38.419Z,2.52
2018-01-12T10:07:37.720Z,2.58
2018-01-12T10:08:40.367Z,2.58
2018-01-12T10:09:40.038Z,2.54
2018-01-12T10:10:39.949Z,2.66
2018-01-12T10:11:39.942Z,2.67
2018-01-12T10:12:38.659Z,2.65
2018-01-12T10:13:38.684Z,2.69
2018-01-12T10:14:38.866Z,2.67
2018-01-12T10:15:39.627Z,2.54
2018-01-12T10:16:39.868Z,2.59
2018-01-12T10:17:39.207Z,2.69
2018-01-12T10:18:39.721Z,2.7
2018-01-12T10:19:39.630Z,2.67
2018-01-12T10:20:40.797Z,2.67
2018-01-12T10:21:39.662Z,2.73
2018-01-12T10:22:39.350Z,2.7
2018-01-12T10:23:39.149Z,2.73
2018-01-12T10:24:39.859Z,2.76
2018-01-12T10:25:39.682Z,2.69
2018-01-12T10:26:39.459Z,2.67
2018-01-12T10:27:39.829Z,2.7
2018-01-12T10:28:39.476Z,2.7
2018-01-12T10:29:39.738Z,2.77
2018-01-12T10:30:40.347Z,2.78
2018-01-12T10:31:39.660Z,2.77
2018-01-12T10:32:39.992Z,2.78
2018-01-12T10:33:39.711Z,2.77
2018-01-12T10:34:39.980Z,2.76
2018-01-12T10:35:39.783Z,2.76
2018-01-12T10:36:40.053Z,2.69
2018-01-12T10:37:39.963Z,2.76
2018-01-12T10:38:40.366Z,2.73
2018-01-12T10:39:41.017Z,2.73
2018-01-12T10:40:40.845Z,2.69
2018-01-12T10:41:40.406Z,2.73
2018-01-12T10:42:41.112Z,2.78
2018-01-12T10:43:40.844Z,2.7
2018-01-12T10:44:41.333Z,2.76
2018-01-12T10:45:42.761Z,2.73
2018-01-12T10:46:42.323Z,2.77
2018-01-12T10:47:42.907Z,2.76
2018-01-12T10:48:42.608Z,2.77
2018-01-12T10:49:42.909Z,2.84
2018-01-12T10:50:42.872Z,2.73
2018-01-12T10:51:43.342Z,2.81
2018-01-12T10:52:42.931Z,2.85
2018-01-12T10:53:42.822Z,2.81
2018-01-12T10:54:42.618Z,2.83
2018-01-12T10:55:42.339Z,2.87
2018-01-12T10:56:42.667Z,2.85
2018-01-12T10:57:42.875Z,2.83
2018-01-12T10:58:43.063Z,2.81
2018-01-12T10:59:42.583Z,2.87
2018-01-12T11:00:43.140Z,2.87
2018-01-12T11:01:41.494Z,2.85
2018-01-12T11:02:43.147Z,2.87
2018-01-12T11:03:42.044Z,2.81
2018-01-12T11:04:42.489Z,2.84
2018-01-12T11:05:41.887Z,2.83
2018-01-12T11:06:42.819Z,2.87
2018-01-12T11:07:41.974Z,2.83
2018-01-12T11:08:42.642Z,2.9
2018-01-12T11:09:42.180Z,2.87
2018-01-12T11:10:43.057Z,2.9
2018-01-12T11:11:43.770Z,2.85
2018-01-12T11:12:43.438Z,2.93
2018-01-12T11:13:42.892Z,2.9
2018-01-12T11:14:42.847Z,2.96
2018-01-12T11:15:42.505Z,2.91
2018-01-12T11:16:42.244Z,2.88
2018-01-12T11:17:42.439Z,2.88
2018-01-12T11:18:42.848Z,2.9
2018-01-12T11:19:41.921Z,2.9
2018-01-12T11:20:43.070Z,2.87
2018-01-12T11:21:42.231Z,2.88
2018-01-12T11:22:42.297Z,2.87
2018-01-12T11:23:42.414Z,2.93
2018-01-12T11:24:42.804Z,2.91
2018-01-12T11:25:42.936Z,2.84
2018-01-12T11:26:42.526Z,2.98
2018-01-12T11:27:42.377Z,2.91
2018-01-12T11:28:42.093Z,2.91
2018-01-12T11:29:42.416Z,2.84
2018-01-12T11:30:42.232Z,2.95
2018-01-12T11:31:42.042Z,2.91
2018-01-12T11:32:42.822Z,2.91
2018-01-12T11:33:42.580Z,2.88
2018-01-12T11:34:43.313Z,2.87
2018-01-12T11:35:43.296Z,2.87
2018-01-12T11:36:43.515Z,2.88
2018-01-12T11:37:43.729Z,2.93
2018-01-12T11:38:44.328Z,2.87
2018-01-12T11:39:44.201Z,2.85
2018-01-12T11:40:44.261Z,2.88
2018-01-12T11:41:44.306Z,2.87
2018-01-12T11:42:44.099Z,2.87
2018-01-12T11:43:44.088Z,2.96
2018-01-12T11:44:44.497Z,2.81
2018-01-12T11:45:44.313Z,2.85
2018-01-12T11:46:45.124Z,2.91
2018-01-12T11:47:44.543Z,2.99
2018-01-12T11:48:44.189Z,2.95
2018-01-12T11:49:44.501Z,2.91
2018-01-12T11:50:44.417Z,2.9
2018-01-12T11:51:44.678Z,2.9
2018-01-12T11:52:44.789Z,2.95
2018-01-12T11:53:44.761Z,3.01
2018-01-12T11:54:44.909Z,2.9
2018-01-12T11:55:45.162Z,2.98
2018-01-12T11:56:44.457Z,2.99
2018-01-12T11:57:44.758Z,2.96
2018-01-12T11:58:44.738Z,2.98
2018-01-12T11:59:46.088Z,2.96
2018-01-12T12:00:45.259Z,2.99
2018-01-12T12:01:46.347Z,2.91
2018-01-12T12:02:46.487Z,2.95
2018-01-12T12:03:46.863Z,3.02
2018-01-12T12:04:45.639Z,2.85
2018-01-12T12:05:45.716Z,2.95
2018-01-12T12:06:46.210Z,2.96
2018-01-12T12:07:45.848Z,2.99
2018-01-12T12:08:45.518Z,2.93
2018-01-12T12:09:45.711Z,2.98
2018-01-12T12:10:46.672Z,2.98
2018-01-12T12:11:46.365Z,2.99
2018-01-12T12:12:45.674Z,2.98
2018-01-12T12:13:46.318Z,2.96
2018-01-12T12:14:45.743Z,2.98
2018-01-12T12:15:45.801Z,3.03
2018-01-12T12:16:46.662Z,2.98
2018-01-12T12:17:47.292Z,2.96
2018-01-12T12:18:46.735Z,3.01
2018-01-12T12:19:45.618Z,3.01
2018-01-12T12:20:46.383Z,2.99
2018-01-12T12:22:01.072Z,2.98
2018-01-12T12:22:47.424Z,2.98
2018-01-12T12:23:46.412Z,2.98
2018-01-12T12:24:47.768Z,3.02
2018-01-12T12:25:47.177Z,3.01
2018-01-12T12:26:47.037Z,2.96
2018-01-12T12:27:47.387Z,2.95
2018-01-12T12:28:47.416Z,3.02
2018-01-12T12:29:47.173Z,3.01
2018-01-12T12:30:47.584Z,2.98
2018-01-12T12:31:47.762Z,2.99
2018-01-12T12:32:47.332Z,2.93
2018-01-12T12:33:47.277Z,2.98
2018-01-12T12:34:46.995Z,2.93
2018-01-12T12:35:47.813Z,3.03
2018-01-12T12:36:47.347Z,3.08
2018-01-12T12:37:47.893Z,3.11
2018-01-12T12:38:47.272Z,2.96
2018-01-12T12:39:47.829Z,2.99
2018-01-12T12:40:48.676Z,3.03
2018-01-12T12:41:48.325Z,3.01
2018-01-12T12:42:48.997Z,3.01
2018-01-12T12:43:48.884Z,2.96
2018-01-12T12:44:48.781Z,2.99
2018-01-12T12:45:48.123Z,2.96
2018-01-12T12:46:48.805Z,2.99
2018-01-12T12:47:49.482Z,2.96
2018-01-12T12:48:48.584Z,2.93
2018-01-12T12:49:49.093Z,3.02
2018-01-12T12:50:49.183Z,2.93
2018-01-12T12:51:49.222Z,3.03
2018-01-12T12:52:48.982Z,2.96
2018-01-12T12:53:49.033Z,2.99
2018-01-12T12:54:50.417Z,2.99
2018-01-12T12:55:50.007Z,2.99
2018-01-12T12:56:51.382Z,2.95
2018-01-12T12:57:50.028Z,3.05
2018-01-12T12:58:50.441Z,3.01
2018-01-12T12:59:50.878Z,2.96
2018-01-12T13:00:49.817Z,2.95
2018-01-12T13:01:50.192Z,2.98
2018-01-12T13:02:50.817Z,2.99
2018-01-12T13:03:50.294Z,2.98
2018-01-12T13:04:50.278Z,2.99
2018-01-12T13:05:49.798Z,3.01
2018-01-12T13:06:49.747Z,2.96
2018-01-12T13:07:52.204Z,2.9
2018-01-12T13:08:51.208Z,2.93
2018-01-12T13:09:51.800Z,3.01
2018-01-12T13:10:51.376Z,3.01
2018-01-12T13:11:50.483Z,2.99
2018-01-12T13:12:50.547Z,2.95
2018-01-12T13:13:50.522Z,2.87
2018-01-12T13:14:50.871Z,3.01
2018-01-12T13:15:51.553Z,2.88
2018-01-12T13:16:51.753Z,3.01
2018-01-12T13:17:51.369Z,2.91
2018-01-12T13:18:50.511Z,2.85
2018-01-12T13:19:51.310Z,2.88
2018-01-12T13:20:50.892Z,2.85
2018-01-12T13:21:50.798Z,2.88
2018-01-12T13:22:50.741Z,2.95
2018-01-12T13:23:50.906Z,2.84
2018-01-12T13:24:51.484Z,2.87
2018-01-12T13:25:51.292Z,2.9
2018-01-12T13:26:51.902Z,2.88
2018-01-12T13:27:51.099Z,2.87